sensor_id;sensor_type;location;lat;lon;timestamp;P1;durP1;ratioP1;P2;durP2;ratioP2
70253;SDS011;57649;42.968;1.608;2023-06-24T00:02:16;7.07;;;4.40;;
70253;SDS011;57649;42.968;1.608;2023-06-24T00:04:42;4.55;;;4.15;;
70253;SDS011;57649;42.968;1.608;2023-06-24T00:07:07;6.03;;;3.63;;
70253;SDS011;57649;42.968;1.608;2023-06-24T00:09:33;4.95;;;3.90;;
70253;SDS011;57649;42.968;1.608;2023-06-24T00:11:58;8.63;;;4.00;;
70253;SDS011;57649;42.968;1.608;2023-06-24T00:14:27;7.60;;;4.35;;
70253;SDS011;57649;42.968;1.608;2023-06-24T00:16:53;6.88;;;4.28;;
70253;SDS011;57649;42.968;1.608;2023-06-24T00:19:19;6.07;;;4.13;;
70253;SDS011;57649;42.968;1.608;2023-06-24T00:21:46;6.57;;;4.13;;
70253;SDS011;57649;42.968;1.608;2023-06-24T00:24:12;8.05;;;4.43;;
70253;SDS011;57649;42.968;1.608;2023-06-24T00:26:37;7.90;;;4.07;;
70253;SDS011;57649;42.968;1.608;2023-06-24T00:29:03;5.93;;;4.40;;
70253;SDS011;57649;42.968;1.608;2023-06-24T00:31:28;5.22;;;3.83;;
70253;SDS011;57649;42.968;1.608;2023-06-24T00:33:54;7.97;;;3.72;;
70253;SDS011;57649;42.968;1.608;2023-06-24T00:36:20;6.03;;;4.00;;
70253;SDS011;57649;42.968;1.608;2023-06-24T00:38:45;7.50;;;3.78;;
70253;SDS011;57649;42.968;1.608;2023-06-24T00:41:11;7.18;;;4.10;;
70253;SDS011;57649;42.968;1.608;2023-06-24T00:43:36;6.13;;;4.30;;
70253;SDS011;57649;42.968;1.608;2023-06-24T00:46:03;14.40;;;4.68;;
70253;SDS011;57649;42.968;1.608;2023-06-24T00:48:29;8.52;;;4.38;;
70253;SDS011;57649;42.968;1.608;2023-06-24T00:50:56;5.97;;;4.18;;
70253;SDS011;57649;42.968;1.608;2023-06-24T00:53:23;8.38;;;4.78;;
70253;SDS011;57649;42.968;1.608;2023-06-24T00:55:49;6.07;;;4.13;;
70253;SDS011;57649;42.968;1.608;2023-06-24T00:58:17;7.18;;;4.30;;
70253;SDS011;57649;42.968;1.608;2023-06-24T01:00:45;5.45;;;4.40;;
70253;SDS011;57649;42.968;1.608;2023-06-24T01:03:13;7.78;;;3.95;;
70253;SDS011;57649;42.968;1.608;2023-06-24T01:05:38;8.35;;;4.13;;
70253;SDS011;57649;42.968;1.608;2023-06-24T01:08:06;6.82;;;4.03;;
70253;SDS011;57649;42.968;1.608;2023-06-24T01:10:31;6.00;;;4.03;;
70253;SDS011;57649;42.968;1.608;2023-06-24T01:12:57;6.22;;;4.18;;
70253;SDS011;57649;42.968;1.608;2023-06-24T01:15:23;5.78;;;3.97;;
70253;SDS011;57649;42.968;1.608;2023-06-24T01:20:32;4.70;;;3.95;;
70253;SDS011;57649;42.968;1.608;2023-06-24T01:26:19;5.93;;;4.32;;
70253;SDS011;57649;42.968;1.608;2023-06-24T01:31:52;6.78;;;4.20;;
70253;SDS011;57649;42.968;1.608;2023-06-24T01:37:25;5.75;;;4.50;;
70253;SDS011;57649;42.968;1.608;2023-06-24T01:40:22;9.40;;;3.90;;
70253;SDS011;57649;42.968;1.608;2023-06-24T01:42:50;11.95;;;4.65;;
70253;SDS011;57649;42.968;1.608;2023-06-24T01:45:21;4.82;;;3.90;;
70253;SDS011;57649;42.968;1.608;2023-06-24T01:47:53;9.13;;;6.47;;
70253;SDS011;57649;42.968;1.608;2023-06-24T01:50:24;15.13;;;12.60;;
70253;SDS011;57649;42.968;1.608;2023-06-24T01:52:51;9.73;;;5.30;;
70253;SDS011;57649;42.968;1.608;2023-06-24T01:55:20;6.00;;;4.67;;
70253;SDS011;57649;42.968;1.608;2023-06-24T01:57:46;7.22;;;4.50;;
70253;SDS011;57649;42.968;1.608;2023-06-24T02:00:14;6.03;;;4.40;;
70253;SDS011;57649;42.968;1.608;2023-06-24T02:02:41;5.22;;;3.75;;
70253;SDS011;57649;42.968;1.608;2023-06-24T02:05:08;10.02;;;5.00;;
70253;SDS011;57649;42.968;1.608;2023-06-24T02:07:35;5.88;;;4.22;;
70253;SDS011;57649;42.968;1.608;2023-06-24T02:10:02;6.70;;;4.50;;
70253;SDS011;57649;42.968;1.608;2023-06-24T02:12:28;6.57;;;4.30;;
70253;SDS011;57649;42.968;1.608;2023-06-24T02:14:56;8.07;;;4.32;;
70253;SDS011;57649;42.968;1.608;2023-06-24T02:17:24;11.15;;;4.25;;
70253;SDS011;57649;42.968;1.608;2023-06-24T02:19:51;6.03;;;4.07;;
70253;SDS011;57649;42.968;1.608;2023-06-24T02:22:17;9.20;;;4.65;;
70253;SDS011;57649;42.968;1.608;2023-06-24T02:24:43;5.15;;;3.55;;
70253;SDS011;57649;42.968;1.608;2023-06-24T02:27:09;6.30;;;4.00;;
70253;SDS011;57649;42.968;1.608;2023-06-24T02:29:36;5.20;;;3.72;;
70253;SDS011;57649;42.968;1.608;2023-06-24T02:32:04;6.22;;;3.92;;
70253;SDS011;57649;42.968;1.608;2023-06-24T02:34:30;5.72;;;4.20;;
70253;SDS011;57649;42.968;1.608;2023-06-24T02:36:56;7.00;;;4.30;;
70253;SDS011;57649;42.968;1.608;2023-06-24T02:39:21;7.30;;;4.28;;
70253;SDS011;57649;42.968;1.608;2023-06-24T02:41:48;5.05;;;3.88;;
70253;SDS011;57649;42.968;1.608;2023-06-24T02:44:14;5.20;;;3.88;;
70253;SDS011;57649;42.968;1.608;2023-06-24T02:46:40;5.07;;;3.83;;
70253;SDS011;57649;42.968;1.608;2023-06-24T02:49:08;8.00;;;4.75;;
70253;SDS011;57649;42.968;1.608;2023-06-24T02:51:36;5.72;;;4.32;;
70253;SDS011;57649;42.968;1.608;2023-06-24T02:54:03;4.80;;;3.75;;
70253;SDS011;57649;42.968;1.608;2023-06-24T02:56:30;8.32;;;4.13;;
70253;SDS011;57649;42.968;1.608;2023-06-24T02:58:56;6.40;;;4.25;;
70253;SDS011;57649;42.968;1.608;2023-06-24T03:01:21;5.30;;;4.20;;
70253;SDS011;57649;42.968;1.608;2023-06-24T03:03:51;6.40;;;4.35;;
70253;SDS011;57649;42.968;1.608;2023-06-24T03:06:21;7.80;;;3.85;;
70253;SDS011;57649;42.968;1.608;2023-06-24T03:08:47;10.25;;;4.68;;
70253;SDS011;57649;42.968;1.608;2023-06-24T03:11:13;6.20;;;4.15;;
70253;SDS011;57649;42.968;1.608;2023-06-24T03:13:39;5.28;;;3.97;;
70253;SDS011;57649;42.968;1.608;2023-06-24T03:16:05;7.50;;;4.03;;
70253;SDS011;57649;42.968;1.608;2023-06-24T03:18:31;7.07;;;4.32;;
70253;SDS011;57649;42.968;1.608;2023-06-24T03:20:56;5.75;;;3.88;;
70253;SDS011;57649;42.968;1.608;2023-06-24T03:23:21;6.35;;;4.07;;
70253;SDS011;57649;42.968;1.608;2023-06-24T03:25:47;7.40;;;4.45;;
70253;SDS011;57649;42.968;1.608;2023-06-24T03:28:12;5.15;;;4.00;;
70253;SDS011;57649;42.968;1.608;2023-06-24T03:30:38;7.10;;;3.80;;
70253;SDS011;57649;42.968;1.608;2023-06-24T03:33:03;6.28;;;4.03;;
70253;SDS011;57649;42.968;1.608;2023-06-24T03:35:29;6.40;;;4.28;;
70253;SDS011;57649;42.968;1.608;2023-06-24T03:37:57;9.07;;;4.30;;
70253;SDS011;57649;42.968;1.608;2023-06-24T03:40:23;5.38;;;4.47;;
70253;SDS011;57649;42.968;1.608;2023-06-24T03:42:48;5.05;;;4.15;;
70253;SDS011;57649;42.968;1.608;2023-06-24T03:45:13;5.82;;;4.55;;
70253;SDS011;57649;42.968;1.608;2023-06-24T03:47:39;6.72;;;4.60;;
70253;SDS011;57649;42.968;1.608;2023-06-24T03:50:04;6.32;;;4.03;;
70253;SDS011;57649;42.968;1.608;2023-06-24T03:52:30;7.95;;;4.47;;
70253;SDS011;57649;42.968;1.608;2023-06-24T03:54:56;7.10;;;4.18;;
70253;SDS011;57649;42.968;1.608;2023-06-24T03:57:21;6.60;;;4.28;;
70253;SDS011;57649;42.968;1.608;2023-06-24T03:59:47;8.07;;;4.93;;
70253;SDS011;57649;42.968;1.608;2023-06-24T04:02:12;9.30;;;4.43;;
70253;SDS011;57649;42.968;1.608;2023-06-24T04:04:39;7.88;;;4.50;;
70253;SDS011;57649;42.968;1.608;2023-06-24T04:07:04;6.85;;;4.22;;
70253;SDS011;57649;42.968;1.608;2023-06-24T04:09:32;6.47;;;3.80;;
70253;SDS011;57649;42.968;1.608;2023-06-24T04:11:58;6.85;;;4.72;;
70253;SDS011;57649;42.968;1.608;2023-06-24T04:14:24;6.50;;;4.85;;
70253;SDS011;57649;42.968;1.608;2023-06-24T04:16:49;7.32;;;4.60;;
70253;SDS011;57649;42.968;1.608;2023-06-24T04:19:15;6.28;;;4.15;;
70253;SDS011;57649;42.968;1.608;2023-06-24T04:21:41;8.02;;;4.88;;
70253;SDS011;57649;42.968;1.608;2023-06-24T04:24:07;7.38;;;4.63;;
70253;SDS011;57649;42.968;1.608;2023-06-24T04:26:32;10.23;;;4.30;;
70253;SDS011;57649;42.968;1.608;2023-06-24T04:28:58;5.78;;;4.40;;
70253;SDS011;57649;42.968;1.608;2023-06-24T04:31:23;12.45;;;8.40;;
70253;SDS011;57649;42.968;1.608;2023-06-24T04:33:49;7.95;;;6.03;;
70253;SDS011;57649;42.968;1.608;2023-06-24T04:36:14;7.93;;;4.63;;
70253;SDS011;57649;42.968;1.608;2023-06-24T04:38:39;6.82;;;4.32;;
70253;SDS011;57649;42.968;1.608;2023-06-24T04:41:05;6.00;;;4.25;;
70253;SDS011;57649;42.968;1.608;2023-06-24T04:43:30;8.05;;;4.38;;
70253;SDS011;57649;42.968;1.608;2023-06-24T04:45:56;6.95;;;4.60;;
70253;SDS011;57649;42.968;1.608;2023-06-24T04:48:24;7.93;;;4.85;;
70253;SDS011;57649;42.968;1.608;2023-06-24T04:50:50;10.00;;;5.00;;
70253;SDS011;57649;42.968;1.608;2023-06-24T04:53:15;6.85;;;4.30;;
70253;SDS011;57649;42.968;1.608;2023-06-24T04:55:41;7.53;;;4.70;;
70253;SDS011;57649;42.968;1.608;2023-06-24T04:58:06;9.50;;;4.95;;
70253;SDS011;57649;42.968;1.608;2023-06-24T05:00:31;5.93;;;4.25;;
70253;SDS011;57649;42.968;1.608;2023-06-24T05:02:57;7.40;;;4.57;;
70253;SDS011;57649;42.968;1.608;2023-06-24T05:05:22;6.68;;;4.22;;
70253;SDS011;57649;42.968;1.608;2023-06-24T05:07:48;6.55;;;4.40;;
70253;SDS011;57649;42.968;1.608;2023-06-24T05:10:13;8.57;;;4.78;;
70253;SDS011;57649;42.968;1.608;2023-06-24T05:12:39;6.25;;;4.47;;
70253;SDS011;57649;42.968;1.608;2023-06-24T05:15:05;5.70;;;4.30;;
70253;SDS011;57649;42.968;1.608;2023-06-24T05:17:31;7.95;;;4.32;;
70253;SDS011;57649;42.968;1.608;2023-06-24T05:19:56;7.75;;;4.47;;
70253;SDS011;57649;42.968;1.608;2023-06-24T05:22:22;6.25;;;5.05;;
70253;SDS011;57649;42.968;1.608;2023-06-24T05:24:47;5.78;;;4.72;;
70253;SDS011;57649;42.968;1.608;2023-06-24T05:27:12;9.23;;;4.50;;
70253;SDS011;57649;42.968;1.608;2023-06-24T05:29:38;6.72;;;4.53;;
70253;SDS011;57649;42.968;1.608;2023-06-24T05:32:03;9.93;;;4.45;;
70253;SDS011;57649;42.968;1.608;2023-06-24T05:34:30;7.22;;;4.70;;
70253;SDS011;57649;42.968;1.608;2023-06-24T05:36:56;7.05;;;4.65;;
70253;SDS011;57649;42.968;1.608;2023-06-24T05:39:21;7.75;;;4.57;;
70253;SDS011;57649;42.968;1.608;2023-06-24T05:41:46;6.00;;;4.45;;
70253;SDS011;57649;42.968;1.608;2023-06-24T05:44:13;6.93;;;4.40;;
70253;SDS011;57649;42.968;1.608;2023-06-24T05:46:39;5.72;;;4.32;;
70253;SDS011;57649;42.968;1.608;2023-06-24T05:49:05;6.63;;;4.53;;
70253;SDS011;57649;42.968;1.608;2023-06-24T05:51:30;6.90;;;4.68;;
70253;SDS011;57649;42.968;1.608;2023-06-24T05:53:56;6.50;;;4.68;;
70253;SDS011;57649;42.968;1.608;2023-06-24T05:56:21;5.90;;;4.65;;
70253;SDS011;57649;42.968;1.608;2023-06-24T05:58:49;9.35;;;5.07;;
70253;SDS011;57649;42.968;1.608;2023-06-24T06:01:15;7.70;;;4.65;;
70253;SDS011;57649;42.968;1.608;2023-06-24T06:03:40;9.15;;;5.20;;
70253;SDS011;57649;42.968;1.608;2023-06-24T06:06:06;6.32;;;4.80;;
70253;SDS011;57649;42.968;1.608;2023-06-24T06:08:32;7.78;;;4.40;;
70253;SDS011;57649;42.968;1.608;2023-06-24T06:10:58;8.23;;;4.68;;
70253;SDS011;57649;42.968;1.608;2023-06-24T06:13:24;6.50;;;4.95;;
70253;SDS011;57649;42.968;1.608;2023-06-24T06:15:49;9.25;;;5.38;;
70253;SDS011;57649;42.968;1.608;2023-06-24T06:18:14;7.65;;;4.53;;
70253;SDS011;57649;42.968;1.608;2023-06-24T06:20:40;7.07;;;4.60;;
70253;SDS011;57649;42.968;1.608;2023-06-24T06:23:05;9.48;;;4.78;;
70253;SDS011;57649;42.968;1.608;2023-06-24T06:25:32;8.20;;;6.22;;
70253;SDS011;57649;42.968;1.608;2023-06-24T06:27:57;7.97;;;5.18;;
70253;SDS011;57649;42.968;1.608;2023-06-24T06:30:23;7.50;;;5.40;;
70253;SDS011;57649;42.968;1.608;2023-06-24T06:32:48;9.77;;;5.95;;
70253;SDS011;57649;42.968;1.608;2023-06-24T06:35:14;8.15;;;5.60;;
70253;SDS011;57649;42.968;1.608;2023-06-24T06:37:39;10.75;;;5.72;;
70253;SDS011;57649;42.968;1.608;2023-06-24T06:40:05;8.98;;;5.47;;
70253;SDS011;57649;42.968;1.608;2023-06-24T06:42:30;8.45;;;5.32;;
70253;SDS011;57649;42.968;1.608;2023-06-24T06:44:56;9.02;;;5.13;;
70253;SDS011;57649;42.968;1.608;2023-06-24T06:47:22;7.22;;;5.00;;
70253;SDS011;57649;42.968;1.608;2023-06-24T06:49:47;5.70;;;4.60;;
70253;SDS011;57649;42.968;1.608;2023-06-24T06:52:13;7.05;;;5.72;;
70253;SDS011;57649;42.968;1.608;2023-06-24T06:54:38;12.90;;;5.93;;
70253;SDS011;57649;42.968;1.608;2023-06-24T06:57:04;5.95;;;5.20;;
70253;SDS011;57649;42.968;1.608;2023-06-24T06:59:30;9.10;;;6.55;;
70253;SDS011;57649;42.968;1.608;2023-06-24T07:01:56;7.03;;;5.60;;
70253;SDS011;57649;42.968;1.608;2023-06-24T07:04:22;8.50;;;6.00;;
70253;SDS011;57649;42.968;1.608;2023-06-24T07:06:47;8.13;;;6.00;;
70253;SDS011;57649;42.968;1.608;2023-06-24T07:09:13;8.13;;;5.85;;
70253;SDS011;57649;42.968;1.608;2023-06-24T07:11:40;7.70;;;5.00;;
70253;SDS011;57649;42.968;1.608;2023-06-24T07:14:05;9.43;;;5.50;;
70253;SDS011;57649;42.968;1.608;2023-06-24T07:16:31;6.78;;;5.53;;
70253;SDS011;57649;42.968;1.608;2023-06-24T07:18:56;7.38;;;5.70;;
70253;SDS011;57649;42.968;1.608;2023-06-24T07:21:21;10.07;;;6.15;;
70253;SDS011;57649;42.968;1.608;2023-06-24T07:23:48;10.10;;;5.13;;
70253;SDS011;57649;42.968;1.608;2023-06-24T07:26:13;7.07;;;5.72;;
70253;SDS011;57649;42.968;1.608;2023-06-24T07:28:38;6.65;;;5.03;;
70253;SDS011;57649;42.968;1.608;2023-06-24T07:31:04;6.40;;;5.45;;
70253;SDS011;57649;42.968;1.608;2023-06-24T07:33:29;8.38;;;5.50;;
70253;SDS011;57649;42.968;1.608;2023-06-24T07:35:56;13.52;;;5.68;;
70253;SDS011;57649;42.968;1.608;2023-06-24T07:38:21;7.50;;;5.57;;
70253;SDS011;57649;42.968;1.608;2023-06-24T07:40:47;5.82;;;5.25;;
70253;SDS011;57649;42.968;1.608;2023-06-24T07:43:12;9.15;;;5.18;;
70253;SDS011;57649;42.968;1.608;2023-06-24T07:45:38;10.88;;;5.90;;
70253;SDS011;57649;42.968;1.608;2023-06-24T07:48:03;5.82;;;5.18;;
70253;SDS011;57649;42.968;1.608;2023-06-24T07:50:30;5.90;;;5.13;;
70253;SDS011;57649;42.968;1.608;2023-06-24T07:52:56;7.82;;;5.55;;
70253;SDS011;57649;42.968;1.608;2023-06-24T07:55:21;7.13;;;5.10;;
70253;SDS011;57649;42.968;1.608;2023-06-24T07:57:47;5.40;;;4.82;;
70253;SDS011;57649;42.968;1.608;2023-06-24T08:00:14;5.18;;;4.68;;
70253;SDS011;57649;42.968;1.608;2023-06-24T08:02:56;8.00;;;5.18;;
70253;SDS011;57649;42.968;1.608;2023-06-24T08:05:22;8.48;;;5.90;;
70253;SDS011;57649;42.968;1.608;2023-06-24T08:07:50;7.32;;;5.28;;
70253;SDS011;57649;42.968;1.608;2023-06-24T08:10:16;12.63;;;5.07;;
70253;SDS011;57649;42.968;1.608;2023-06-24T08:12:41;7.40;;;4.80;;
70253;SDS011;57649;42.968;1.608;2023-06-24T08:15:07;6.05;;;4.57;;
70253;SDS011;57649;42.968;1.608;2023-06-24T08:17:32;5.85;;;4.57;;
70253;SDS011;57649;42.968;1.608;2023-06-24T08:19:58;5.53;;;4.57;;
70253;SDS011;57649;42.968;1.608;2023-06-24T08:22:23;7.28;;;4.40;;
70253;SDS011;57649;42.968;1.608;2023-06-24T08:24:49;6.38;;;5.10;;
70253;SDS011;57649;42.968;1.608;2023-06-24T08:27:14;8.93;;;5.20;;
70253;SDS011;57649;42.968;1.608;2023-06-24T08:29:40;5.85;;;4.80;;
70253;SDS011;57649;42.968;1.608;2023-06-24T08:32:05;7.25;;;4.97;;
70253;SDS011;57649;42.968;1.608;2023-06-24T08:34:34;5.15;;;4.65;;
70253;SDS011;57649;42.968;1.608;2023-06-24T08:36:59;5.90;;;4.50;;
70253;SDS011;57649;42.968;1.608;2023-06-24T08:39:25;5.68;;;4.63;;
70253;SDS011;57649;42.968;1.608;2023-06-24T08:41:50;7.93;;;4.60;;
70253;SDS011;57649;42.968;1.608;2023-06-24T08:44:16;5.80;;;4.50;;
70253;SDS011;57649;42.968;1.608;2023-06-24T08:46:41;5.40;;;4.90;;
70253;SDS011;57649;42.968;1.608;2023-06-24T08:49:24;6.93;;;4.40;;
70253;SDS011;57649;42.968;1.608;2023-06-24T08:52:03;5.20;;;4.25;;
70253;SDS011;57649;42.968;1.608;2023-06-24T08:54:34;7.30;;;4.63;;
70253;SDS011;57649;42.968;1.608;2023-06-24T08:57:01;6.20;;;5.00;;
70253;SDS011;57649;42.968;1.608;2023-06-24T08:59:30;9.32;;;4.68;;
70253;SDS011;57649;42.968;1.608;2023-06-24T09:01:56;6.45;;;4.15;;
70253;SDS011;57649;42.968;1.608;2023-06-24T09:04:21;8.55;;;7.05;;
70253;SDS011;57649;42.968;1.608;2023-06-24T09:06:46;7.20;;;4.25;;
70253;SDS011;57649;42.968;1.608;2023-06-24T09:09:21;6.22;;;4.07;;
70253;SDS011;57649;42.968;1.608;2023-06-24T09:11:51;5.80;;;4.28;;
70253;SDS011;57649;42.968;1.608;2023-06-24T09:14:18;5.00;;;3.70;;
70253;SDS011;57649;42.968;1.608;2023-06-24T09:16:50;5.53;;;3.95;;
70253;SDS011;57649;42.968;1.608;2023-06-24T09:19:22;4.78;;;3.83;;
70253;SDS011;57649;42.968;1.608;2023-06-24T09:21:49;4.32;;;3.60;;
70253;SDS011;57649;42.968;1.608;2023-06-24T09:24:16;5.93;;;3.78;;
70253;SDS011;57649;42.968;1.608;2023-06-24T09:26:43;5.45;;;4.20;;
70253;SDS011;57649;42.968;1.608;2023-06-24T09:31:49;5.53;;;3.60;;
70253;SDS011;57649;42.968;1.608;2023-06-24T09:34:18;4.88;;;3.53;;
70253;SDS011;57649;42.968;1.608;2023-06-24T09:36:44;10.27;;;4.38;;
70253;SDS011;57649;42.968;1.608;2023-06-24T09:39:15;5.63;;;3.75;;
70253;SDS011;57649;42.968;1.608;2023-06-24T09:41:41;6.95;;;3.50;;
70253;SDS011;57649;42.968;1.608;2023-06-24T09:44:08;5.32;;;3.40;;
70253;SDS011;57649;42.968;1.608;2023-06-24T09:46:35;5.55;;;3.72;;
70253;SDS011;57649;42.968;1.608;2023-06-24T09:49:02;5.38;;;3.58;;
70253;SDS011;57649;42.968;1.608;2023-06-24T09:51:29;7.22;;;4.05;;
70253;SDS011;57649;42.968;1.608;2023-06-24T09:53:57;5.20;;;3.50;;
70253;SDS011;57649;42.968;1.608;2023-06-24T09:56:23;5.82;;;3.20;;
70253;SDS011;57649;42.968;1.608;2023-06-24T09:58:49;4.15;;;3.00;;
70253;SDS011;57649;42.968;1.608;2023-06-24T10:01:14;7.55;;;3.30;;
70253;SDS011;57649;42.968;1.608;2023-06-24T10:03:41;4.05;;;3.30;;
70253;SDS011;57649;42.968;1.608;2023-06-24T10:06:07;5.10;;;3.88;;
70253;SDS011;57649;42.968;1.608;2023-06-24T10:08:33;5.28;;;3.60;;
70253;SDS011;57649;42.968;1.608;2023-06-24T10:10:59;5.50;;;3.38;;
70253;SDS011;57649;42.968;1.608;2023-06-24T10:13:25;6.82;;;3.90;;
70253;SDS011;57649;42.968;1.608;2023-06-24T10:15:51;4.55;;;3.45;;
70253;SDS011;57649;42.968;1.608;2023-06-24T10:18:33;5.88;;;3.50;;
70253;SDS011;57649;42.968;1.608;2023-06-24T10:21:08;4.15;;;3.50;;
70253;SDS011;57649;42.968;1.608;2023-06-24T10:23:50;4.68;;;3.40;;
70253;SDS011;57649;42.968;1.608;2023-06-24T10:26:24;6.20;;;3.58;;
70253;SDS011;57649;42.968;1.608;2023-06-24T10:47:33;4.45;;;3.20;;
70253;SDS011;57649;42.968;1.608;2023-06-24T10:50:00;4.13;;;3.25;;
70253;SDS011;57649;42.968;1.608;2023-06-24T10:52:25;4.60;;;3.03;;
70253;SDS011;57649;42.968;1.608;2023-06-24T10:54:51;4.78;;;3.58;;
70253;SDS011;57649;42.968;1.608;2023-06-24T10:57:25;6.80;;;3.25;;
70253;SDS011;57649;42.968;1.608;2023-06-24T10:59:53;5.25;;;2.92;;
70253;SDS011;57649;42.968;1.608;2023-06-24T11:02:20;8.38;;;3.13;;
70253;SDS011;57649;42.968;1.608;2023-06-24T11:04:48;4.97;;;3.35;;
70253;SDS011;57649;42.968;1.608;2023-06-24T11:07:14;4.18;;;2.97;;
70253;SDS011;57649;42.968;1.608;2023-06-24T11:09:40;6.07;;;2.95;;
70253;SDS011;57649;42.968;1.608;2023-06-24T11:12:08;4.72;;;3.22;;
70253;SDS011;57649;42.968;1.608;2023-06-24T11:14:34;4.95;;;3.47;;
70253;SDS011;57649;42.968;1.608;2023-06-24T11:17:02;4.50;;;3.08;;
70253;SDS011;57649;42.968;1.608;2023-06-24T11:19:29;5.03;;;2.83;;
70253;SDS011;57649;42.968;1.608;2023-06-24T11:21:58;4.28;;;2.80;;
70253;SDS011;57649;42.968;1.608;2023-06-24T11:24:24;4.30;;;3.17;;
70253;SDS011;57649;42.968;1.608;2023-06-24T11:26:50;5.15;;;2.97;;
70253;SDS011;57649;42.968;1.608;2023-06-24T11:29:16;4.03;;;3.13;;
70253;SDS011;57649;42.968;1.608;2023-06-24T11:31:41;5.75;;;3.78;;
70253;SDS011;57649;42.968;1.608;2023-06-24T11:34:08;4.68;;;3.30;;
70253;SDS011;57649;42.968;1.608;2023-06-24T11:36:34;4.93;;;3.25;;
70253;SDS011;57649;42.968;1.608;2023-06-24T11:39:00;4.50;;;2.72;;
70253;SDS011;57649;42.968;1.608;2023-06-24T11:41:25;5.10;;;3.03;;
70253;SDS011;57649;42.968;1.608;2023-06-24T11:43:52;5.35;;;2.80;;
70253;SDS011;57649;42.968;1.608;2023-06-24T11:46:21;6.07;;;3.67;;
70253;SDS011;57649;42.968;1.608;2023-06-24T11:48:46;3.97;;;3.00;;
70253;SDS011;57649;42.968;1.608;2023-06-24T11:51:15;3.58;;;2.80;;
70253;SDS011;57649;42.968;1.608;2023-06-24T11:53:40;4.70;;;2.97;;
70253;SDS011;57649;42.968;1.608;2023-06-24T11:56:08;5.97;;;2.95;;
70253;SDS011;57649;42.968;1.608;2023-06-24T11:58:34;4.18;;;2.70;;
70253;SDS011;57649;42.968;1.608;2023-06-24T12:03:32;5.85;;;3.03;;
70253;SDS011;57649;42.968;1.608;2023-06-24T12:06:01;4.53;;;2.53;;
70253;SDS011;57649;42.968;1.608;2023-06-24T12:08:26;5.35;;;2.90;;
70253;SDS011;57649;42.968;1.608;2023-06-24T12:10:52;5.13;;;2.70;;
70253;SDS011;57649;42.968;1.608;2023-06-24T12:13:17;4.35;;;3.17;;
70253;SDS011;57649;42.968;1.608;2023-06-24T12:15:43;3.88;;;3.00;;
70253;SDS011;57649;42.968;1.608;2023-06-24T12:18:08;4.60;;;3.10;;
70253;SDS011;57649;42.968;1.608;2023-06-24T12:20:34;4.47;;;2.97;;
70253;SDS011;57649;42.968;1.608;2023-06-24T12:23:01;5.15;;;2.90;;
70253;SDS011;57649;42.968;1.608;2023-06-24T12:25:28;4.97;;;3.25;;
70253;SDS011;57649;42.968;1.608;2023-06-24T12:27:54;3.83;;;2.80;;
70253;SDS011;57649;42.968;1.608;2023-06-24T12:30:19;5.35;;;2.75;;
70253;SDS011;57649;42.968;1.608;2023-06-24T12:32:46;3.85;;;2.55;;
70253;SDS011;57649;42.968;1.608;2023-06-24T12:35:11;4.28;;;3.08;;
70253;SDS011;57649;42.968;1.608;2023-06-24T12:37:37;4.88;;;2.80;;
70253;SDS011;57649;42.968;1.608;2023-06-24T12:40:03;6.57;;;2.92;;
70253;SDS011;57649;42.968;1.608;2023-06-24T12:42:29;5.15;;;2.92;;
70253;SDS011;57649;42.968;1.608;2023-06-24T12:44:55;3.65;;;2.90;;
70253;SDS011;57649;42.968;1.608;2023-06-24T12:47:21;4.57;;;2.78;;
70253;SDS011;57649;42.968;1.608;2023-06-24T12:49:46;3.65;;;2.83;;
70253;SDS011;57649;42.968;1.608;2023-06-24T12:52:12;4.32;;;2.90;;
70253;SDS011;57649;42.968;1.608;2023-06-24T12:54:39;6.60;;;2.80;;
70253;SDS011;57649;42.968;1.608;2023-06-24T12:57:04;6.18;;;2.70;;
70253;SDS011;57649;42.968;1.608;2023-06-24T12:59:30;4.60;;;2.65;;
70253;SDS011;57649;42.968;1.608;2023-06-24T13:01:55;4.95;;;3.00;;
70253;SDS011;57649;42.968;1.608;2023-06-24T13:04:21;4.05;;;2.60;;
70253;SDS011;57649;42.968;1.608;2023-06-24T13:06:48;3.65;;;2.90;;
70253;SDS011;57649;42.968;1.608;2023-06-24T13:09:16;4.25;;;2.80;;
70253;SDS011;57649;42.968;1.608;2023-06-24T13:11:41;5.40;;;2.60;;
70253;SDS011;57649;42.968;1.608;2023-06-24T13:14:07;5.28;;;2.90;;
70253;SDS011;57649;42.968;1.608;2023-06-24T13:16:34;3.65;;;2.70;;
70253;SDS011;57649;42.968;1.608;2023-06-24T13:19:01;3.08;;;2.50;;
70253;SDS011;57649;42.968;1.608;2023-06-24T13:21:26;3.78;;;2.92;;
70253;SDS011;57649;42.968;1.608;2023-06-24T13:23:52;3.25;;;2.33;;
70253;SDS011;57649;42.968;1.608;2023-06-24T13:26:17;4.32;;;2.72;;
70253;SDS011;57649;42.968;1.608;2023-06-24T13:28:42;3.95;;;2.60;;
70253;SDS011;57649;42.968;1.608;2023-06-24T13:31:08;4.70;;;2.33;;
70253;SDS011;57649;42.968;1.608;2023-06-24T13:33:34;5.90;;;2.40;;
70253;SDS011;57649;42.968;1.608;2023-06-24T13:35:59;3.50;;;2.80;;
70253;SDS011;57649;42.968;1.608;2023-06-24T13:38:25;6.07;;;2.70;;
70253;SDS011;57649;42.968;1.608;2023-06-24T13:40:50;6.57;;;2.80;;
70253;SDS011;57649;42.968;1.608;2023-06-24T13:43:15;3.78;;;2.65;;
70253;SDS011;57649;42.968;1.608;2023-06-24T13:45:41;4.05;;;2.83;;
70253;SDS011;57649;42.968;1.608;2023-06-24T13:48:06;4.70;;;2.63;;
70253;SDS011;57649;42.968;1.608;2023-06-24T13:50:32;3.40;;;2.40;;
70253;SDS011;57649;42.968;1.608;2023-06-24T13:52:57;5.50;;;2.70;;
70253;SDS011;57649;42.968;1.608;2023-06-24T13:55:23;4.93;;;3.05;;
70253;SDS011;57649;42.968;1.608;2023-06-24T13:57:48;4.90;;;2.67;;
70253;SDS011;57649;42.968;1.608;2023-06-24T14:00:14;5.07;;;2.88;;
70253;SDS011;57649;42.968;1.608;2023-06-24T14:02:40;3.65;;;2.70;;
70253;SDS011;57649;42.968;1.608;2023-06-24T14:05:06;3.58;;;2.78;;
70253;SDS011;57649;42.968;1.608;2023-06-24T14:07:31;5.65;;;2.67;;
70253;SDS011;57649;42.968;1.608;2023-06-24T14:09:57;5.10;;;2.60;;
70253;SDS011;57649;42.968;1.608;2023-06-24T14:12:22;3.35;;;2.40;;
70253;SDS011;57649;42.968;1.608;2023-06-24T14:14:48;4.43;;;2.53;;
70253;SDS011;57649;42.968;1.608;2023-06-24T14:17:13;3.85;;;2.65;;
70253;SDS011;57649;42.968;1.608;2023-06-24T14:19:39;3.35;;;2.33;;
70253;SDS011;57649;42.968;1.608;2023-06-24T14:22:05;3.45;;;2.50;;
70253;SDS011;57649;42.968;1.608;2023-06-24T14:24:32;3.30;;;2.55;;
70253;SDS011;57649;42.968;1.608;2023-06-24T14:26:57;4.30;;;2.33;;
70253;SDS011;57649;42.968;1.608;2023-06-24T14:29:23;3.28;;;2.45;;
70253;SDS011;57649;42.968;1.608;2023-06-24T14:31:49;5.10;;;2.58;;
70253;SDS011;57649;42.968;1.608;2023-06-24T14:34:14;4.50;;;2.85;;
70253;SDS011;57649;42.968;1.608;2023-06-24T14:36:39;3.10;;;2.50;;
70253;SDS011;57649;42.968;1.608;2023-06-24T14:39:05;3.20;;;2.40;;
70253;SDS011;57649;42.968;1.608;2023-06-24T14:41:31;3.10;;;2.30;;
70253;SDS011;57649;42.968;1.608;2023-06-24T14:43:57;3.75;;;2.80;;
70253;SDS011;57649;42.968;1.608;2023-06-24T14:46:23;4.25;;;2.40;;
70253;SDS011;57649;42.968;1.608;2023-06-24T14:48:48;7.65;;;2.75;;
70253;SDS011;57649;42.968;1.608;2023-06-24T14:51:14;4.68;;;2.53;;
70253;SDS011;57649;42.968;1.608;2023-06-24T14:53:39;3.67;;;2.28;;
70253;SDS011;57649;42.968;1.608;2023-06-24T14:56:05;5.80;;;2.58;;
70253;SDS011;57649;42.968;1.608;2023-06-24T14:58:31;5.35;;;2.50;;
70253;SDS011;57649;42.968;1.608;2023-06-24T15:00:56;3.65;;;2.45;;
70253;SDS011;57649;42.968;1.608;2023-06-24T15:03:21;4.05;;;2.60;;
70253;SDS011;57649;42.968;1.608;2023-06-24T15:05:47;6.00;;;3.70;;
70253;SDS011;57649;42.968;1.608;2023-06-24T15:08:12;4.18;;;2.80;;
70253;SDS011;57649;42.968;1.608;2023-06-24T15:10:38;5.38;;;2.50;;
70253;SDS011;57649;42.968;1.608;2023-06-24T15:13:03;4.43;;;2.67;;
70253;SDS011;57649;42.968;1.608;2023-06-24T15:15:30;3.22;;;2.35;;
70253;SDS011;57649;42.968;1.608;2023-06-24T15:17:55;3.38;;;2.33;;
70253;SDS011;57649;42.968;1.608;2023-06-24T15:20:21;3.90;;;2.60;;